sensor_id;sensor_type;location;lat;lon;timestamp;pressure;altitude;pressure_sealevel;temperature;humidity
32759;BME280;19125;52.360;9.974;2023-06-19T00:00:27;84855.97;;;-145.17;39.97
32759;BME280;19125;52.360;9.974;2023-06-19T00:02:52;84865.88;;;-145.17;39.98
32759;BME280;19125;52.360;9.974;2023-06-19T00:05:18;84842.06;;;-145.17;40.21
32759;BME280;19125;52.360;9.974;2023-06-19T00:07:43;84842.06;;;-145.17;39.89
32759;BME280;19125;52.360;9.974;2023-06-19T00:10:08;84853.97;;;-145.17;39.81
32759;BME280;19125;52.360;9.974;2023-06-19T00:12:34;84877.78;;;-145.17;39.69
32759;BME280;19125;52.360;9.974;2023-06-19T00:14:59;84838.09;;;-145.17;39.22
32759;BME280;19125;52.360;9.974;2023-06-19T00:17:25;84844.06;;;-145.17;39.10
32759;BME280;19125;52.360;9.974;2023-06-19T00:19:53;84850.00;;;-145.17;38.97
32759;BME280;19125;52.360;9.974;2023-06-19T00:22:18;84850.00;;;-145.17;38.97
32759;BME280;19125;52.360;9.974;2023-06-19T00:24:44;84826.19;;;-145.17;38.76
32759;BME280;19125;52.360;9.974;2023-06-19T00:27:09;84846.03;;;-145.17;38.80
32759;BME280;19125;52.360;9.974;2023-06-19T00:29:34;84857.94;;;-145.17;38.91
32759;BME280;19125;52.360;9.974;2023-06-19T00:32:00;84929.34;;;-145.17;38.91
32759;BME280;19125;52.360;9.974;2023-06-19T00:34:25;84865.88;;;-145.17;38.87
32759;BME280;19125;52.360;9.974;2023-06-19T00:36:52;84883.72;;;-145.17;39.15
32759;BME280;19125;52.360;9.974;2023-06-19T00:39:24;84865.88;;;-145.17;39.42
32759;BME280;19125;52.360;9.974;2023-06-19T00:41:52;84861.91;;;-145.17;39.70
32759;BME280;19125;52.360;9.974;2023-06-19T00:44:17;84905.56;;;-145.17;39.58
32759;BME280;19125;52.360;9.974;2023-06-19T00:46:43;84871.81;;;-145.17;39.66
32759;BME280;19125;52.360;9.974;2023-06-19T00:49:08;84838.09;;;-145.17;39.61
32759;BME280;19125;52.360;9.974;2023-06-19T00:51:34;84857.94;;;-145.17;39.65
32759;BME280;19125;52.360;9.974;2023-06-19T00:53:59;84838.09;;;-145.17;39.72
32759;BME280;19125;52.360;9.974;2023-06-19T00:56:25;84857.94;;;-145.17;40.08
32759;BME280;19125;52.360;9.974;2023-06-19T00:58:52;84917.47;;;-145.17;40.25
32759;BME280;19125;52.360;9.974;2023-06-19T01:01:19;84867.84;;;-145.17;40.35
32759;BME280;19125;52.360;9.974;2023-06-19T01:03:46;84877.78;;;-145.17;40.39
32759;BME280;19125;52.360;9.974;2023-06-19T01:06:15;84873.81;;;-145.17;40.44
32759;BME280;19125;52.360;9.974;2023-06-19T01:08:56;84883.72;;;-145.17;40.37
32759;BME280;19125;52.360;9.974;2023-06-19T01:11:26;84877.78;;;-145.17;40.09
32759;BME280;19125;52.360;9.974;2023-06-19T01:13:59;84889.69;;;-145.17;40.11
32759;BME280;19125;52.360;9.974;2023-06-19T01:16:26;84885.72;;;-145.17;40.23
32759;BME280;19125;52.360;9.974;2023-06-19T01:18:53;84881.75;;;-145.17;40.25
32759;BME280;19125;52.360;9.974;2023-06-19T01:21:18;84881.75;;;-145.17;40.14
32759;BME280;19125;52.360;9.974;2023-06-19T01:23:45;84875.78;;;-145.17;40.32
32759;BME280;19125;52.360;9.974;2023-06-19T01:26:11;84873.81;;;-145.17;40.12
32759;BME280;19125;52.360;9.974;2023-06-19T01:28:38;84863.91;;;-145.17;39.89
32759;BME280;19125;52.360;9.974;2023-06-19T01:31:29;84901.59;;;-145.17;40.21
32759;BME280;19125;52.360;9.974;2023-06-19T01:33:56;84871.81;;;-145.17;39.88
32759;BME280;19125;52.360;9.974;2023-06-19T01:36:23;84869.84;;;-145.17;40.04
32759;BME280;19125;52.360;9.974;2023-06-19T01:38:49;84855.97;;;-145.17;40.02
32759;BME280;19125;52.360;9.974;2023-06-19T01:41:17;84873.81;;;-145.17;39.85
32759;BME280;19125;52.360;9.974;2023-06-19T01:43:45;84877.78;;;-145.17;40.20
32759;BME280;19125;52.360;9.974;2023-06-19T01:46:10;84889.69;;;-145.17;39.83
32759;BME280;19125;52.360;9.974;2023-06-19T01:48:38;84895.63;;;-145.17;39.89
32759;BME280;19125;52.360;9.974;2023-06-19T01:51:04;84877.78;;;-145.17;39.77
32759;BME280;19125;52.360;9.974;2023-06-19T01:53:32;84875.78;;;-145.17;39.83
32759;BME280;19125;52.360;9.974;2023-06-19T01:55:59;84875.78;;;-145.17;40.00
32759;BME280;19125;52.360;9.974;2023-06-19T01:58:24;84893.66;;;-145.17;40.39
32759;BME280;19125;52.360;9.974;2023-06-19T02:00:50;84899.59;;;-145.17;40.43
32759;BME280;19125;52.360;9.974;2023-06-19T02:03:15;84921.41;;;-145.17;40.71
32759;BME280;19125;52.360;9.974;2023-06-19T02:05:41;84909.53;;;-145.17;40.93
32759;BME280;19125;52.360;9.974;2023-06-19T02:08:06;84929.34;;;-145.17;41.18
32759;BME280;19125;52.360;9.974;2023-06-19T02:10:32;84893.66;;;-145.17;40.89
32759;BME280;19125;52.360;9.974;2023-06-19T02:12:57;84949.19;;;-145.17;41.13
32759;BME280;19125;52.360;9.974;2023-06-19T02:15:23;84980.94;;;-145.17;41.36
32759;BME280;19125;52.360;9.974;2023-06-19T02:17:48;84955.16;;;-145.17;41.63
32759;BME280;19125;52.360;9.974;2023-06-19T02:20:14;84980.94;;;-145.17;41.81
32759;BME280;19125;52.360;9.974;2023-06-19T02:22:39;84967.06;;;-145.17;41.71
32759;BME280;19125;52.360;9.974;2023-06-19T02:25:05;84963.09;;;-145.17;41.69
32759;BME280;19125;52.360;9.974;2023-06-19T02:27:31;84976.97;;;-145.17;41.71
32759;BME280;19125;52.360;9.974;2023-06-19T02:29:57;84969.03;;;-145.17;41.74
32759;BME280;19125;52.360;9.974;2023-06-19T02:32:22;84976.97;;;-145.17;41.72
32759;BME280;19125;52.360;9.974;2023-06-19T02:34:47;84959.13;;;-145.17;41.90
32759;BME280;19125;52.360;9.974;2023-06-19T02:37:13;84974.97;;;-145.17;41.83
32759;BME280;19125;52.360;9.974;2023-06-19T02:39:38;84963.09;;;-145.17;41.54
32759;BME280;19125;52.360;9.974;2023-06-19T02:42:03;84967.06;;;-145.17;41.46
32759;BME280;19125;52.360;9.974;2023-06-19T02:44:29;84941.25;;;-145.17;41.29
32759;BME280;19125;52.360;9.974;2023-06-19T02:46:55;84953.16;;;-145.17;41.08
32759;BME280;19125;52.360;9.974;2023-06-19T02:49:20;84961.09;;;-145.17;40.89
32759;BME280;19125;52.360;9.974;2023-06-19T02:51:46;84941.25;;;-145.17;40.88
32759;BME280;19125;52.360;9.974;2023-06-19T02:54:11;84917.47;;;-145.17;40.86
32759;BME280;19125;52.360;9.974;2023-06-19T02:56:37;84937.28;;;-145.17;40.96
32759;BME280;19125;52.360;9.974;2023-06-19T02:59:03;84919.44;;;-145.17;40.88
32759;BME280;19125;52.360;9.974;2023-06-19T03:01:28;84925.38;;;-145.17;40.73
32759;BME280;19125;52.360;9.974;2023-06-19T03:03:54;84953.16;;;-145.17;40.83
32759;BME280;19125;52.360;9.974;2023-06-19T03:06:19;84923.41;;;-145.17;40.87
32759;BME280;19125;52.360;9.974;2023-06-19T03:08:45;84941.25;;;-145.17;41.13
32759;BME280;19125;52.360;9.974;2023-06-19T03:11:11;84961.09;;;-145.17;41.38
32759;BME280;19125;52.360;9.974;2023-06-19T03:13:52;84986.88;;;-145.17;41.71
32759;BME280;19125;52.360;9.974;2023-06-19T03:16:18;84976.97;;;-145.17;42.04
32759;BME280;19125;52.360;9.974;2023-06-19T03:18:44;84982.91;;;-145.17;41.85
32759;BME280;19125;52.360;9.974;2023-06-19T03:21:14;84980.94;;;-145.17;42.02
32759;BME280;19125;52.360;9.974;2023-06-19T03:23:39;84957.13;;;-145.17;42.15
32759;BME280;19125;52.360;9.974;2023-06-19T03:26:08;84980.94;;;-145.17;42.15
32759;BME280;19125;52.360;9.974;2023-06-19T03:28:35;84961.09;;;-145.17;41.89
32759;BME280;19125;52.360;9.974;2023-06-19T03:31:00;84976.97;;;-145.17;41.68
32759;BME280;19125;52.360;9.974;2023-06-19T03:33:26;84988.88;;;-145.17;41.58
32759;BME280;19125;52.360;9.974;2023-06-19T03:35:51;84965.06;;;-145.17;41.73
32759;BME280;19125;52.360;9.974;2023-06-19T03:38:16;84957.13;;;-145.17;41.91
32759;BME280;19125;52.360;9.974;2023-06-19T03:40:42;84959.13;;;-145.17;42.15
32759;BME280;19125;52.360;9.974;2023-06-19T03:43:07;84980.94;;;-145.17;41.70
32759;BME280;19125;52.360;9.974;2023-06-19T03:45:32;84967.06;;;-145.17;41.45
32759;BME280;19125;52.360;9.974;2023-06-19T03:47:57;84965.06;;;-145.17;41.43
32759;BME280;19125;52.360;9.974;2023-06-19T03:50:23;85002.75;;;-145.17;41.43
32759;BME280;19125;52.360;9.974;2023-06-19T03:52:48;85004.75;;;-145.17;41.68
32759;BME280;19125;52.360;9.974;2023-06-19T03:55:13;84976.97;;;-145.17;41.83
32759;BME280;19125;52.360;9.974;2023-06-19T03:57:39;84982.91;;;-145.17;41.69
32759;BME280;19125;52.360;9.974;2023-06-19T04:00:05;84980.94;;;-145.17;41.61
32759;BME280;19125;52.360;9.974;2023-06-19T04:02:36;84984.91;;;-145.17;41.39
32759;BME280;19125;52.360;9.974;2023-06-19T04:05:01;84965.06;;;-145.17;40.99
32759;BME280;19125;52.360;9.974;2023-06-19T04:07:27;84957.13;;;-145.17;40.81
32759;BME280;19125;52.360;9.974;2023-06-19T04:09:52;84961.09;;;-145.17;40.46
32759;BME280;19125;52.360;9.974;2023-06-19T04:12:17;84965.06;;;-145.17;40.14
32759;BME280;19125;52.360;9.974;2023-06-19T04:14:43;84937.28;;;-145.17;40.08
32759;BME280;19125;52.360;9.974;2023-06-19T04:17:08;84957.13;;;-145.17;39.59
32759;BME280;19125;52.360;9.974;2023-06-19T04:19:33;84923.41;;;-145.17;39.63
32759;BME280;19125;52.360;9.974;2023-06-19T04:21:59;84953.16;;;-145.17;39.81
32759;BME280;19125;52.360;9.974;2023-06-19T04:24:24;84949.19;;;-145.17;39.97
32759;BME280;19125;52.360;9.974;2023-06-19T04:26:49;84937.28;;;-145.17;39.86
32759;BME280;19125;52.360;9.974;2023-06-19T04:29:15;84955.16;;;-145.17;40.21
32759;BME280;19125;52.360;9.974;2023-06-19T04:31:44;84957.13;;;-145.17;40.10
32759;BME280;19125;52.360;9.974;2023-06-19T04:34:12;84945.22;;;-145.17;40.41
32759;BME280;19125;52.360;9.974;2023-06-19T04:36:39;84915.47;;;-145.17;40.52
32759;BME280;19125;52.360;9.974;2023-06-19T04:39:04;84959.13;;;-145.17;40.75
32759;BME280;19125;52.360;9.974;2023-06-19T04:41:30;84969.03;;;-145.17;41.07
32759;BME280;19125;52.360;9.974;2023-06-19T04:43:55;84937.28;;;-145.17;41.01
32759;BME280;19125;52.360;9.974;2023-06-19T04:46:21;84955.16;;;-145.17;41.13
32759;BME280;19125;52.360;9.974;2023-06-19T04:48:46;84961.09;;;-145.17;41.34
32759;BME280;19125;52.360;9.974;2023-06-19T04:51:18;84961.09;;;-145.17;41.17
32759;BME280;19125;52.360;9.974;2023-06-19T04:53:47;84984.91;;;-145.17;41.16
32759;BME280;19125;52.360;9.974;2023-06-19T04:56:14;84969.03;;;-145.17;41.09
32759;BME280;19125;52.360;9.974;2023-06-19T04:58:40;84953.16;;;-145.17;40.92
32759;BME280;19125;52.360;9.974;2023-06-19T05:01:14;84982.91;;;-145.17;40.89
32759;BME280;19125;52.360;9.974;2023-06-19T05:03:44;84953.16;;;-145.17;41.16
32759;BME280;19125;52.360;9.974;2023-06-19T05:06:11;84933.31;;;-145.17;41.43
32759;BME280;19125;52.360;9.974;2023-06-19T05:08:36;84957.13;;;-145.17;41.71
32759;BME280;19125;52.360;9.974;2023-06-19T05:11:02;84976.97;;;-145.17;42.17
32759;BME280;19125;52.360;9.974;2023-06-19T05:13:27;84980.94;;;-145.17;43.33
32759;BME280;19125;52.360;9.974;2023-06-19T05:15:52;84988.88;;;-145.17;43.96
32759;BME280;19125;52.360;9.974;2023-06-19T05:18:18;85012.69;;;-145.17;45.17
32759;BME280;19125;52.360;9.974;2023-06-19T05:20:43;85046.41;;;-145.17;46.08
32759;BME280;19125;52.360;9.974;2023-06-19T05:23:09;85058.31;;;-145.17;46.70
32759;BME280;19125;52.360;9.974;2023-06-19T05:25:34;85115.84;;;-145.17;47.36
32759;BME280;19125;52.360;9.974;2023-06-19T05:27:59;85125.75;;;-145.17;47.58
32759;BME280;19125;52.360;9.974;2023-06-19T05:30:25;85167.41;;;-145.17;48.04
32759;BME280;19125;52.360;9.974;2023-06-19T05:32:50;85238.84;;;-145.17;49.03
32759;BME280;19125;52.360;9.974;2023-06-19T05:35:16;85226.94;;;-145.17;49.86
32759;BME280;19125;52.360;9.974;2023-06-19T05:37:41;85284.47;;;-145.17;50.51
32759;BME280;19125;52.360;9.974;2023-06-19T05:40:09;85322.16;;;-145.17;50.42
32759;BME280;19125;52.360;9.974;2023-06-19T05:42:35;85338.03;;;-145.17;50.95
32759;BME280;19125;52.360;9.974;2023-06-19T05:45:00;85345.97;;;-145.17;51.53
32759;BME280;19125;52.360;9.974;2023-06-19T05:47:27;85387.63;;;-145.17;52.33
32759;BME280;19125;52.360;9.974;2023-06-19T05:49:53;85435.25;;;-145.17;52.69
32759;BME280;19125;52.360;9.974;2023-06-19T05:52:19;85433.25;;;-145.17;52.54
32759;BME280;19125;52.360;9.974;2023-06-19T05:54:45;85338.03;;;-145.17;51.22
32759;BME280;19125;52.360;9.974;2023-06-19T05:57:10;85276.53;;;-145.17;49.94
32759;BME280;19125;52.360;9.974;2023-06-19T05:59:36;85256.69;;;-145.17;49.50
32759;BME280;19125;52.360;9.974;2023-06-19T06:02:01;85213.03;;;-145.17;48.62
32759;BME280;19125;52.360;9.974;2023-06-19T06:04:28;85242.81;;;-145.17;49.70
32759;BME280;19125;52.360;9.974;2023-06-19T06:06:53;85203.13;;;-145.17;50.28
32759;BME280;19125;52.360;9.974;2023-06-19T06:09:19;85205.09;;;-145.17;50.35
32759;BME280;19125;52.360;9.974;2023-06-19T06:11:45;85199.16;;;-145.17;50.42
32759;BME280;19125;52.360;9.974;2023-06-19T06:14:10;85171.38;;;-145.17;50.41
32759;BME280;19125;52.360;9.974;2023-06-19T06:16:35;85171.38;;;-145.17;50.10
32759;BME280;19125;52.360;9.974;2023-06-19T06:19:01;85123.78;;;-145.17;49.74
32759;BME280;19125;52.360;9.974;2023-06-19T06:21:26;85135.66;;;-145.17;50.12
32759;BME280;19125;52.360;9.974;2023-06-19T06:23:51;85123.78;;;-145.17;50.10
32759;BME280;19125;52.360;9.974;2023-06-19T06:26:17;85054.34;;;-145.17;49.44
32759;BME280;19125;52.360;9.974;2023-06-19T06:28:43;85044.41;;;-145.17;49.47
32759;BME280;19125;52.360;9.974;2023-06-19T06:31:09;84994.81;;;-145.17;48.94
32759;BME280;19125;52.360;9.974;2023-06-19T06:33:34;84947.22;;;-145.17;48.35
32759;BME280;19125;52.360;9.974;2023-06-19T06:35:59;84931.34;;;-145.17;48.17
32759;BME280;19125;52.360;9.974;2023-06-19T06:38:25;84897.63;;;-145.17;47.67
32759;BME280;19125;52.360;9.974;2023-06-19T06:40:50;84824.22;;;-145.17;46.96
32759;BME280;19125;52.360;9.974;2023-06-19T06:43:16;84806.38;;;-145.17;46.61
32759;BME280;19125;52.360;9.974;2023-06-19T06:45:41;84846.03;;;-145.17;46.92
32759;BME280;19125;52.360;9.974;2023-06-19T06:48:07;84853.97;;;-145.17;46.47
32759;BME280;19125;52.360;9.974;2023-06-19T06:50:33;84846.03;;;-145.17;47.04
32759;BME280;19125;52.360;9.974;2023-06-19T06:52:58;84853.97;;;-145.17;47.22
32759;BME280;19125;52.360;9.974;2023-06-19T06:55:24;84871.81;;;-145.17;47.87
32759;BME280;19125;52.360;9.974;2023-06-19T06:57:49;84869.84;;;-145.17;47.67
32759;BME280;19125;52.360;9.974;2023-06-19T07:00:15;84887.69;;;-145.17;47.33
32759;BME280;19125;52.360;9.974;2023-06-19T07:02:40;84861.91;;;-145.17;47.14
32759;BME280;19125;52.360;9.974;2023-06-19T07:05:09;84846.03;;;-145.17;46.88
32759;BME280;19125;52.360;9.974;2023-06-19T07:07:35;84800.41;;;-145.17;46.72
32759;BME280;19125;52.360;9.974;2023-06-19T07:10:01;84776.59;;;-145.17;46.52
32759;BME280;19125;52.360;9.974;2023-06-19T07:12:26;84774.63;;;-145.17;46.48
32759;BME280;19125;52.360;9.974;2023-06-19T07:14:54;84752.81;;;-145.17;46.14
32759;BME280;19125;52.360;9.974;2023-06-19T07:17:20;84707.19;;;-145.17;45.92
32759;BME280;19125;52.360;9.974;2023-06-19T07:19:45;84695.28;;;-145.17;46.04
32759;BME280;19125;52.360;9.974;2023-06-19T07:22:11;84671.47;;;-145.17;45.87
32759;BME280;19125;52.360;9.974;2023-06-19T07:24:36;84617.91;;;-145.17;45.15
32759;BME280;19125;52.360;9.974;2023-06-19T07:27:02;84611.97;;;-145.17;44.59
32759;BME280;19125;52.360;9.974;2023-06-19T07:29:27;84552.47;;;-145.17;44.47
32759;BME280;19125;52.360;9.974;2023-06-19T07:31:53;84546.50;;;-145.17;43.96
32759;BME280;19125;52.360;9.974;2023-06-19T07:34:18;84465.19;;;-145.17;42.82
32759;BME280;19125;52.360;9.974;2023-06-19T07:36:43;84413.59;;;-145.17;41.97
32759;BME280;19125;52.360;9.974;2023-06-19T07:39:09;84364.03;;;-145.17;41.35
32759;BME280;19125;52.360;9.974;2023-06-19T07:41:35;84314.44;;;-145.17;40.51
32759;BME280;19125;52.360;9.974;2023-06-19T07:44:00;84342.22;;;-145.17;40.01
32759;BME280;19125;52.360;9.974;2023-06-19T07:46:26;84358.06;;;-145.17;39.53
32759;BME280;19125;52.360;9.974;2023-06-19T07:48:51;84237.09;;;-145.17;38.97
32759;BME280;19125;52.360;9.974;2023-06-19T07:51:17;84207.34;;;-145.17;38.39
32759;BME280;19125;52.360;9.974;2023-06-19T07:53:42;84195.44;;;-145.17;38.23
32759;BME280;19125;52.360;9.974;2023-06-19T07:56:08;84124.03;;;-145.17;38.02
32759;BME280;19125;52.360;9.974;2023-06-19T07:58:34;84161.72;;;-145.17;37.32
32759;BME280;19125;52.360;9.974;2023-06-19T08:01:00;84114.13;;;-145.17;37.41
32759;BME280;19125;52.360;9.974;2023-06-19T08:03:25;84112.13;;;-145.17;37.69
32759;BME280;19125;52.360;9.974;2023-06-19T08:05:50;84084.38;;;-145.17;37.09
32759;BME280;19125;52.360;9.974;2023-06-19T08:08:16;84086.34;;;-145.17;36.52
32759;BME280;19125;52.360;9.974;2023-06-19T08:10:41;83981.22;;;-145.17;35.86
32759;BME280;19125;52.360;9.974;2023-06-19T08:13:07;83927.69;;;-145.17;35.26
32759;BME280;19125;52.360;9.974;2023-06-19T08:15:32;83893.97;;;-145.17;34.72
32759;BME280;19125;52.360;9.974;2023-06-19T08:17:58;83806.69;;;-145.17;33.90
32759;BME280;19125;52.360;9.974;2023-06-19T08:20:23;83822.56;;;-145.17;33.65
32759;BME280;19125;52.360;9.974;2023-06-19T08:22:49;83778.94;;;-145.17;32.68
32759;BME280;19125;52.360;9.974;2023-06-19T08:25:14;83739.28;;;-145.17;32.77
32759;BME280;19125;52.360;9.974;2023-06-19T08:27:40;83701.59;;;-145.17;32.00
32759;BME280;19125;52.360;9.974;2023-06-19T08:30:05;83727.38;;;-145.17;31.33
32759;BME280;19125;52.360;9.974;2023-06-19T08:32:31;83729.38;;;-145.17;31.84
32759;BME280;19125;52.360;9.974;2023-06-19T08:34:56;83699.63;;;-145.17;32.19
32759;BME280;19125;52.360;9.974;2023-06-19T08:37:21;83677.81;;;-145.17;31.78
32759;BME280;19125;52.360;9.974;2023-06-19T08:39:47;83683.75;;;-145.17;31.64
32759;BME280;19125;52.360;9.974;2023-06-19T08:42:12;83739.28;;;-145.17;31.88
32759;BME280;19125;52.360;9.974;2023-06-19T08:44:38;83735.31;;;-145.17;31.99
32759;BME280;19125;52.360;9.974;2023-06-19T08:47:04;83665.91;;;-145.17;31.52
32759;BME280;19125;52.360;9.974;2023-06-19T08:49:30;83630.19;;;-145.17;31.62
32759;BME280;19125;52.360;9.974;2023-06-19T08:51:56;83560.78;;;-145.17;31.25
32759;BME280;19125;52.360;9.974;2023-06-19T08:54:21;83580.63;;;-145.17;30.49
32759;BME280;19125;52.360;9.974;2023-06-19T08:56:47;83588.56;;;-145.17;30.96
32759;BME280;19125;52.360;9.974;2023-06-19T08:59:14;83509.22;;;-145.17;30.60
32759;BME280;19125;52.360;9.974;2023-06-19T09:01:46;83523.13;;;-145.17;30.39
32759;BME280;19125;52.360;9.974;2023-06-19T09:04:17;83503.28;;;-145.17;30.66
32759;BME280;19125;52.360;9.974;2023-06-19T09:06:50;83483.44;;;-145.17;30.26
32759;BME280;19125;52.360;9.974;2023-06-19T09:09:17;83465.59;;;-145.17;30.48
32759;BME280;19125;52.360;9.974;2023-06-19T09:14:37;83449.75;;;-145.17;30.30
32759;BME280;19125;52.360;9.974;2023-06-19T09:17:03;83414.03;;;-145.17;29.93
32759;BME280;19125;52.360;9.974;2023-06-19T09:19:29;83453.72;;;-145.17;30.00
32759;BME280;19125;52.360;9.974;2023-06-19T09:22:06;83418.00;;;-145.17;30.45
32759;BME280;19125;52.360;9.974;2023-06-19T09:24:41;83358.53;;;-145.17;30.35
32759;BME280;19125;52.360;9.974;2023-06-19T09:27:10;83303.00;;;-145.17;29.74
32759;BME280;19125;52.360;9.974;2023-06-19T09:29:43;83342.66;;;-145.17;30.02
32759;BME280;19125;52.360;9.974;2023-06-19T09:32:26;83346.63;;;-145.17;30.16
32759;BME280;19125;52.360;9.974;2023-06-19T09:34:53;83344.66;;;-145.17;29.81
32759;BME280;19125;52.360;9.974;2023-06-19T09:37:24;83352.56;;;-145.17;29.84
32759;BME280;19125;52.360;9.974;2023-06-19T09:39:56;83354.56;;;-145.17;29.98
32759;BME280;19125;52.360;9.974;2023-06-19T09:42:30;83334.72;;;-145.17;29.68
32759;BME280;19125;52.360;9.974;2023-06-19T09:45:02;83358.53;;;-145.17;29.88
32759;BME280;19125;52.360;9.974;2023-06-19T09:47:35;83259.38;;;-145.17;29.25
32759;BME280;19125;52.360;9.974;2023-06-19T09:50:02;83259.38;;;-145.17;29.30
32759;BME280;19125;52.360;9.974;2023-06-19T09:52:28;83283.16;;;-145.17;29.88
32759;BME280;19125;52.360;9.974;2023-06-19T09:54:54;83213.78;;;-145.17;29.47
32759;BME280;19125;52.360;9.974;2023-06-19T09:57:21;83255.41;;;-145.17;29.24
32759;BME280;19125;52.360;9.974;2023-06-19T09:59:49;83146.34;;;-145.17;28.97
32759;BME280;19125;52.360;9.974;2023-06-19T10:02:17;83057.13;;;-145.17;28.77
32759;BME280;19125;52.360;9.974;2023-06-19T10:04:49;83059.09;;;-145.17;28.53
32759;BME280;19125;52.360;9.974;2023-06-19T10:07:16;83184.03;;;-145.17;28.99
32759;BME280;19125;52.360;9.974;2023-06-19T10:09:57;83199.88;;;-145.17;29.35
32759;BME280;19125;52.360;9.974;2023-06-19T10:12:40;83235.59;;;-145.17;29.61
32759;BME280;19125;52.360;9.974;2023-06-19T10:15:16;83259.38;;;-145.17;29.73
32759;BME280;19125;52.360;9.974;2023-06-19T10:17:46;83275.25;;;-145.17;29.74
32759;BME280;19125;52.360;9.974;2023-06-19T10:20:45;83255.41;;;-145.17;29.97
32759;BME280;19125;52.360;9.974;2023-06-19T10:23:18;83310.94;;;-145.17;30.30
32759;BME280;19125;52.360;9.974;2023-06-19T10:25:45;83346.63;;;-145.17;30.32
32759;BME280;19125;52.360;9.974;2023-06-19T10:28:21;83322.84;;;-145.17;30.08
32759;BME280;19125;52.360;9.974;2023-06-19T10:33:30;83370.41;;;-145.17;30.59
32759;BME280;19125;52.360;9.974;2023-06-19T10:35:57;83396.19;;;-145.17;30.79
32759;BME280;19125;52.360;9.974;2023-06-19T10:38:25;83295.06;;;-145.17;30.69
32759;BME280;19125;52.360;9.974;2023-06-19T10:40:50;83191.97;;;-145.17;29.82
32759;BME280;19125;52.360;9.974;2023-06-19T10:43:20;83132.47;;;-145.17;29.90
32759;BME280;19125;52.360;9.974;2023-06-19T10:45:47;83092.81;;;-145.17;29.60
32759;BME280;19125;52.360;9.974;2023-06-19T10:48:18;83148.34;;;-145.17;29.13
32759;BME280;19125;52.360;9.974;2023-06-19T10:50:44;83199.88;;;-145.17;29.50
32759;BME280;19125;52.360;9.974;2023-06-19T10:53:09;83231.63;;;-145.17;29.69
32759;BME280;19125;52.360;9.974;2023-06-19T10:55:36;83150.31;;;-145.17;29.90
32759;BME280;19125;52.360;9.974;2023-06-19T10:58:01;83168.16;;;-145.17;29.82
32759;BME280;19125;52.360;9.974;2023-06-19T11:00:29;83231.63;;;-145.17;29.38
32759;BME280;19125;52.360;9.974;2023-06-19T11:02:56;83235.59;;;-145.17;29.76
32759;BME280;19125;52.360;9.974;2023-06-19T11:05:22;83203.84;;;-145.17;30.28
32759;BME280;19125;52.360;9.974;2023-06-19T11:07:55;83148.34;;;-145.17;29.59
32759;BME280;19125;52.360;9.974;2023-06-19T11:10:23;83065.06;;;-145.17;28.89
32759;BME280;19125;52.360;9.974;2023-06-19T11:12:53;83080.91;;;-145.17;28.81
32759;BME280;19125;52.360;9.974;2023-06-19T11:15:18;83001.59;;;-145.17;28.78
32759;BME280;19125;52.360;9.974;2023-06-19T11:17:44;83021.44;;;-145.17;28.78
32759;BME280;19125;52.360;9.974;2023-06-19T11:20:11;83120.56;;;-145.17;28.76
32759;BME280;19125;52.360;9.974;2023-06-19T11:22:40;83128.50;;;-145.17;29.40
32759;BME280;19125;52.360;9.974;2023-06-19T11:25:09;83112.63;;;-145.17;29.48
32759;BME280;19125;52.360;9.974;2023-06-19T11:27:44;83084.88;;;-145.17;29.14
32759;BME280;19125;52.360;9.974;2023-06-19T11:30:17;83104.72;;;-145.17;29.44
32759;BME280;19125;52.360;9.974;2023-06-19T11:32:42;83140.41;;;-145.17;29.89
32759;BME280;19125;52.360;9.974;2023-06-19T11:35:11;83108.69;;;-145.17;29.86
32759;BME280;19125;52.360;9.974;2023-06-19T11:37:41;83126.53;;;-145.17;30.06
32759;BME280;19125;52.360;9.974;2023-06-19T11:40:07;83134.44;;;-145.17;29.94
32759;BME280;19125;52.360;9.974;2023-06-19T11:42:55;83074.97;;;-145.17;30.19
32759;BME280;19125;52.360;9.974;2023-06-19T11:45:21;83092.81;;;-145.17;30.22
32759;BME280;19125;52.360;9.974;2023-06-19T11:47:48;83132.47;;;-145.17;30.21
32759;BME280;19125;52.360;9.974;2023-06-19T11:50:14;83080.91;;;-145.17;29.84
32759;BME280;19125;52.360;9.974;2023-06-19T11:52:42;83051.16;;;-145.17;29.07
32759;BME280;19125;52.360;9.974;2023-06-19T11:55:08;83041.25;;;-145.17;29.11
32759;BME280;19125;52.360;9.974;2023-06-19T11:57:34;82987.72;;;-145.17;29.17
32759;BME280;19125;52.360;9.974;2023-06-19T11:59:59;82884.63;;;-145.17;28.51
32759;BME280;19125;52.360;9.974;2023-06-19T12:02:24;82839.00;;;-145.17;27.68
32759;BME280;19125;52.360;9.974;2023-06-19T12:04:50;82783.50;;;-145.17;26.77
32759;BME280;19125;52.360;9.974;2023-06-19T12:07:15;82981.78;;;-145.17;26.72
32759;BME280;19125;52.360;9.974;2023-06-19T12:09:41;82993.66;;;-145.17;27.31
32759;BME280;19125;52.360;9.974;2023-06-19T12:12:08;83078.94;;;-145.17;27.89
32759;BME280;19125;52.360;9.974;2023-06-19T12:14:34;83110.66;;;-145.17;28.25
32759;BME280;19125;52.360;9.974;2023-06-19T12:16:59;83045.22;;;-145.17;27.60
32759;BME280;19125;52.360;9.974;2023-06-19T12:19:25;83043.25;;;-145.17;27.43
32759;BME280;19125;52.360;9.974;2023-06-19T12:21:51;83041.25;;;-145.17;27.62
32759;BME280;19125;52.360;9.974;2023-06-19T12:24:16;83078.94;;;-145.17;27.98
32759;BME280;19125;52.360;9.974;2023-06-19T12:26:41;83102.72;;;-145.17;27.48
32759;BME280;19125;52.360;9.974;2023-06-19T12:29:07;83116.59;;;-145.17;27.31
32759;BME280;19125;52.360;9.974;2023-06-19T12:31:33;83090.84;;;-145.17;27.58
32759;BME280;19125;52.360;9.974;2023-06-19T12:33:59;83069.03;;;-145.17;27.97
32759;BME280;19125;52.360;9.974;2023-06-19T12:36:26;83039.28;;;-145.17;27.62
32759;BME280;19125;52.360;9.974;2023-06-19T12:38:53;83025.41;;;-145.17;27.09
32759;BME280;19125;52.360;9.974;2023-06-19T12:41:19;83009.53;;;-145.17;27.62
32759;BME280;19125;52.360;9.974;2023-06-19T12:43:45;83047.22;;;-145.17;27.35